sensor_id;sensor_type;location;lat;lon;timestamp;P1;durP1;ratioP1;P2;durP2;ratioP2
21110;SDS011;10713;51.912;4.494;2023-02-28T00:02:19;6.43;;;2.50;;
21110;SDS011;10713;51.912;4.494;2023-02-28T00:04:45;4.43;;;2.38;;
21110;SDS011;10713;51.912;4.494;2023-02-28T00:07:11;8.48;;;2.90;;
21110;SDS011;10713;51.912;4.494;2023-02-28T00:09:36;6.57;;;2.47;;
21110;SDS011;10713;51.912;4.494;2023-02-28T00:12:01;7.35;;;2.92;;
21110;SDS011;10713;51.912;4.494;2023-02-28T00:14:35;7.80;;;2.53;;
21110;SDS011;10713;51.912;4.494;2023-02-28T00:17:00;8.57;;;2.78;;
21110;SDS011;10713;51.912;4.494;2023-02-28T00:19:25;5.30;;;2.63;;
21110;SDS011;10713;51.912;4.494;2023-02-28T00:21:51;7.07;;;2.72;;
21110;SDS011;10713;51.912;4.494;2023-02-28T00:24:16;10.77;;;3.00;;
21110;SDS011;10713;51.912;4.494;2023-02-28T00:26:41;4.32;;;2.47;;
21110;SDS011;10713;51.912;4.494;2023-02-28T00:29:07;6.15;;;2.78;;
21110;SDS011;10713;51.912;4.494;2023-02-28T00:31:32;6.00;;;2.63;;
21110;SDS011;10713;51.912;4.494;2023-02-28T00:33:58;5.53;;;2.60;;
21110;SDS011;10713;51.912;4.494;2023-02-28T00:36:23;5.82;;;2.80;;
21110;SDS011;10713;51.912;4.494;2023-02-28T00:38:48;5.65;;;2.50;;
21110;SDS011;10713;51.912;4.494;2023-02-28T00:41:14;6.10;;;2.50;;
21110;SDS011;10713;51.912;4.494;2023-02-28T00:43:39;6.05;;;2.42;;
21110;SDS011;10713;51.912;4.494;2023-02-28T00:46:05;7.22;;;2.85;;
21110;SDS011;10713;51.912;4.494;2023-02-28T00:48:31;6.30;;;2.97;;
21110;SDS011;10713;51.912;4.494;2023-02-28T00:50:56;5.40;;;2.78;;
21110;SDS011;10713;51.912;4.494;2023-02-28T00:53:22;9.07;;;2.85;;
21110;SDS011;10713;51.912;4.494;2023-02-28T00:55:48;5.10;;;2.45;;
21110;SDS011;10713;51.912;4.494;2023-02-28T00:58:14;5.22;;;2.30;;
21110;SDS011;10713;51.912;4.494;2023-02-28T01:00:39;8.07;;;2.50;;
21110;SDS011;10713;51.912;4.494;2023-02-28T01:03:05;5.78;;;2.42;;
21110;SDS011;10713;51.912;4.494;2023-02-28T01:05:30;4.95;;;2.70;;
21110;SDS011;10713;51.912;4.494;2023-02-28T01:07:56;8.50;;;2.63;;
21110;SDS011;10713;51.912;4.494;2023-02-28T01:10:21;6.30;;;2.60;;
21110;SDS011;10713;51.912;4.494;2023-02-28T01:12:46;5.00;;;2.58;;
21110;SDS011;10713;51.912;4.494;2023-02-28T01:15:12;7.07;;;2.80;;
21110;SDS011;10713;51.912;4.494;2023-02-28T01:17:37;8.05;;;2.58;;
21110;SDS011;10713;51.912;4.494;2023-02-28T01:20:03;7.47;;;2.75;;
21110;SDS011;10713;51.912;4.494;2023-02-28T01:22:29;7.07;;;2.42;;
21110;SDS011;10713;51.912;4.494;2023-02-28T01:24:54;7.47;;;2.50;;
21110;SDS011;10713;51.912;4.494;2023-02-28T01:27:19;5.97;;;2.80;;
21110;SDS011;10713;51.912;4.494;2023-02-28T01:29:45;6.18;;;2.38;;
21110;SDS011;10713;51.912;4.494;2023-02-28T01:32:10;4.53;;;2.47;;
21110;SDS011;10713;51.912;4.494;2023-02-28T01:34:35;6.13;;;2.58;;
21110;SDS011;10713;51.912;4.494;2023-02-28T01:37:01;5.40;;;2.60;;
21110;SDS011;10713;51.912;4.494;2023-02-28T01:39:28;4.30;;;2.28;;
21110;SDS011;10713;51.912;4.494;2023-02-28T01:41:54;6.43;;;2.40;;
21110;SDS011;10713;51.912;4.494;2023-02-28T01:47:25;5.25;;;2.58;;
21110;SDS011;10713;51.912;4.494;2023-02-28T01:49:54;7.05;;;2.60;;
21110;SDS011;10713;51.912;4.494;2023-02-28T01:52:19;6.13;;;2.60;;
21110;SDS011;10713;51.912;4.494;2023-02-28T01:54:47;5.78;;;2.55;;
21110;SDS011;10713;51.912;4.494;2023-02-28T01:57:18;6.53;;;2.38;;
21110;SDS011;10713;51.912;4.494;2023-02-28T01:59:49;6.82;;;2.15;;
21110;SDS011;10713;51.912;4.494;2023-02-28T02:02:20;7.75;;;2.85;;
21110;SDS011;10713;51.912;4.494;2023-02-28T02:04:53;7.07;;;2.83;;
21110;SDS011;10713;51.912;4.494;2023-02-28T02:07:21;4.60;;;2.50;;
21110;SDS011;10713;51.912;4.494;2023-02-28T02:09:48;5.60;;;2.38;;
21110;SDS011;10713;51.912;4.494;2023-02-28T02:12:21;6.20;;;2.70;;
21110;SDS011;10713;51.912;4.494;2023-02-28T02:15:13;6.85;;;2.40;;
21110;SDS011;10713;51.912;4.494;2023-02-28T02:17:45;5.75;;;2.13;;
21110;SDS011;10713;51.912;4.494;2023-02-28T02:29:11;5.25;;;2.70;;
21110;SDS011;10713;51.912;4.494;2023-02-28T02:40:16;5.18;;;2.40;;
21110;SDS011;10713;51.912;4.494;2023-02-28T02:42:47;5.68;;;2.50;;
21110;SDS011;10713;51.912;4.494;2023-02-28T02:45:17;6.78;;;2.40;;
21110;SDS011;10713;51.912;4.494;2023-02-28T02:47:48;7.47;;;2.60;;
21110;SDS011;10713;51.912;4.494;2023-02-28T02:50:17;10.02;;;2.80;;
21110;SDS011;10713;51.912;4.494;2023-02-28T02:52:48;4.90;;;2.50;;
21110;SDS011;10713;51.912;4.494;2023-02-28T02:55:19;4.93;;;2.70;;
21110;SDS011;10713;51.912;4.494;2023-02-28T02:58:07;8.13;;;3.08;;
21110;SDS011;10713;51.912;4.494;2023-02-28T03:00:34;7.47;;;2.75;;
21110;SDS011;10713;51.912;4.494;2023-02-28T03:03:03;5.78;;;3.08;;
21110;SDS011;10713;51.912;4.494;2023-02-28T03:05:33;5.95;;;3.00;;
21110;SDS011;10713;51.912;4.494;2023-02-28T03:08:04;6.43;;;3.20;;
21110;SDS011;10713;51.912;4.494;2023-02-28T03:10:32;6.00;;;2.90;;
21110;SDS011;10713;51.912;4.494;2023-02-28T03:13:13;5.85;;;2.78;;
21110;SDS011;10713;51.912;4.494;2023-02-28T03:23:44;7.50;;;3.42;;
21110;SDS011;10713;51.912;4.494;2023-02-28T03:26:25;9.70;;;3.28;;
21110;SDS011;10713;51.912;4.494;2023-02-28T03:31:28;5.57;;;3.28;;
21110;SDS011;10713;51.912;4.494;2023-02-28T03:34:19;5.90;;;3.10;;
21110;SDS011;10713;51.912;4.494;2023-02-28T03:36:52;7.28;;;3.15;;
21110;SDS011;10713;51.912;4.494;2023-02-28T03:39:24;8.07;;;3.05;;
21110;SDS011;10713;51.912;4.494;2023-02-28T03:41:59;7.90;;;3.45;;
21110;SDS011;10713;51.912;4.494;2023-02-28T03:44:30;8.57;;;3.92;;
21110;SDS011;10713;51.912;4.494;2023-02-28T03:47:02;6.07;;;3.30;;
21110;SDS011;10713;51.912;4.494;2023-02-28T03:52:22;5.32;;;3.10;;
21110;SDS011;10713;51.912;4.494;2023-02-28T03:54:53;5.03;;;3.15;;
21110;SDS011;10713;51.912;4.494;2023-02-28T03:57:31;8.90;;;3.75;;
21110;SDS011;10713;51.912;4.494;2023-02-28T04:00:04;6.28;;;3.70;;
21110;SDS011;10713;51.912;4.494;2023-02-28T04:02:39;5.97;;;3.13;;
21110;SDS011;10713;51.912;4.494;2023-02-28T04:05:05;6.05;;;3.28;;
21110;SDS011;10713;51.912;4.494;2023-02-28T04:07:31;6.90;;;4.07;;
21110;SDS011;10713;51.912;4.494;2023-02-28T04:09:57;12.10;;;3.83;;
21110;SDS011;10713;51.912;4.494;2023-02-28T04:12:23;6.28;;;3.60;;
21110;SDS011;10713;51.912;4.494;2023-02-28T04:14:49;6.95;;;3.72;;
21110;SDS011;10713;51.912;4.494;2023-02-28T04:17:15;9.80;;;4.30;;
21110;SDS011;10713;51.912;4.494;2023-02-28T04:19:41;7.28;;;3.83;;
21110;SDS011;10713;51.912;4.494;2023-02-28T04:22:07;8.68;;;4.07;;
21110;SDS011;10713;51.912;4.494;2023-02-28T04:24:33;9.18;;;4.10;;
21110;SDS011;10713;51.912;4.494;2023-02-28T04:26:59;6.28;;;3.78;;
21110;SDS011;10713;51.912;4.494;2023-02-28T04:29:31;7.85;;;4.07;;
21110;SDS011;10713;51.912;4.494;2023-02-28T04:31:59;10.73;;;4.00;;
21110;SDS011;10713;51.912;4.494;2023-02-28T04:34:26;10.55;;;4.50;;
21110;SDS011;10713;51.912;4.494;2023-02-28T04:36:53;9.57;;;4.05;;
21110;SDS011;10713;51.912;4.494;2023-02-28T04:39:20;9.48;;;4.70;;
21110;SDS011;10713;51.912;4.494;2023-02-28T04:41:46;10.82;;;4.32;;
21110;SDS011;10713;51.912;4.494;2023-02-28T04:44:12;9.40;;;4.57;;
21110;SDS011;10713;51.912;4.494;2023-02-28T04:46:38;10.02;;;5.07;;
21110;SDS011;10713;51.912;4.494;2023-02-28T04:49:03;8.73;;;4.57;;
21110;SDS011;10713;51.912;4.494;2023-02-28T04:51:29;11.07;;;4.55;;
21110;SDS011;10713;51.912;4.494;2023-02-28T04:53:54;11.45;;;5.07;;
21110;SDS011;10713;51.912;4.494;2023-02-28T04:56:20;11.32;;;4.80;;
21110;SDS011;10713;51.912;4.494;2023-02-28T04:58:46;10.15;;;5.10;;
21110;SDS011;10713;51.912;4.494;2023-02-28T05:03:46;14.20;;;5.32;;
21110;SDS011;10713;51.912;4.494;2023-02-28T05:06:12;8.57;;;5.00;;
21110;SDS011;10713;51.912;4.494;2023-02-28T05:08:38;9.45;;;5.13;;
21110;SDS011;10713;51.912;4.494;2023-02-28T05:11:05;10.82;;;5.20;;
21110;SDS011;10713;51.912;4.494;2023-02-28T05:13:36;11.02;;;6.18;;
21110;SDS011;10713;51.912;4.494;2023-02-28T05:16:01;12.38;;;6.20;;
21110;SDS011;10713;51.912;4.494;2023-02-28T05:18:26;10.00;;;5.93;;
21110;SDS011;10713;51.912;4.494;2023-02-28T05:20:51;14.02;;;5.93;;
21110;SDS011;10713;51.912;4.494;2023-02-28T05:23:17;12.95;;;6.35;;
21110;SDS011;10713;51.912;4.494;2023-02-28T05:25:44;12.60;;;6.13;;
21110;SDS011;10713;51.912;4.494;2023-02-28T05:28:10;14.20;;;6.53;;
21110;SDS011;10713;51.912;4.494;2023-02-28T05:30:35;13.27;;;6.00;;
21110;SDS011;10713;51.912;4.494;2023-02-28T05:33:00;10.85;;;5.97;;
21110;SDS011;10713;51.912;4.494;2023-02-28T05:35:26;13.45;;;6.30;;
21110;SDS011;10713;51.912;4.494;2023-02-28T05:37:51;12.15;;;6.13;;
21110;SDS011;10713;51.912;4.494;2023-02-28T05:40:17;13.70;;;5.88;;
21110;SDS011;10713;51.912;4.494;2023-02-28T05:42:44;14.57;;;7.07;;
21110;SDS011;10713;51.912;4.494;2023-02-28T05:45:10;12.50;;;5.97;;
21110;SDS011;10713;51.912;4.494;2023-02-28T05:47:35;11.55;;;6.68;;
21110;SDS011;10713;51.912;4.494;2023-02-28T05:50:01;12.57;;;6.35;;
21110;SDS011;10713;51.912;4.494;2023-02-28T05:52:27;14.25;;;6.35;;
21110;SDS011;10713;51.912;4.494;2023-02-28T05:54:54;8.15;;;4.53;;
21110;SDS011;10713;51.912;4.494;2023-02-28T05:57:20;6.97;;;4.28;;
21110;SDS011;10713;51.912;4.494;2023-02-28T05:59:45;13.20;;;5.60;;
21110;SDS011;10713;51.912;4.494;2023-02-28T06:02:12;11.10;;;5.63;;
21110;SDS011;10713;51.912;4.494;2023-02-28T06:04:38;8.35;;;4.55;;
21110;SDS011;10713;51.912;4.494;2023-02-28T06:07:05;8.25;;;4.68;;
21110;SDS011;10713;51.912;4.494;2023-02-28T06:09:31;9.43;;;5.38;;
21110;SDS011;10713;51.912;4.494;2023-02-28T06:12:00;11.13;;;5.63;;
21110;SDS011;10713;51.912;4.494;2023-02-28T06:14:28;10.98;;;4.18;;
21110;SDS011;10713;51.912;4.494;2023-02-28T06:16:56;10.98;;;5.80;;
21110;SDS011;10713;51.912;4.494;2023-02-28T06:19:22;10.68;;;4.05;;
21110;SDS011;10713;51.912;4.494;2023-02-28T06:21:50;8.20;;;3.53;;
21110;SDS011;10713;51.912;4.494;2023-02-28T06:24:17;5.20;;;3.10;;
21110;SDS011;10713;51.912;4.494;2023-02-28T06:26:44;3.42;;;2.13;;
21110;SDS011;10713;51.912;4.494;2023-02-28T06:29:09;5.15;;;3.20;;
21110;SDS011;10713;51.912;4.494;2023-02-28T06:31:35;8.75;;;3.80;;
21110;SDS011;10713;51.912;4.494;2023-02-28T06:34:00;6.97;;;3.38;;
21110;SDS011;10713;51.912;4.494;2023-02-28T06:36:26;7.18;;;4.00;;
21110;SDS011;10713;51.912;4.494;2023-02-28T06:38:51;6.07;;;2.95;;
21110;SDS011;10713;51.912;4.494;2023-02-28T06:41:20;8.63;;;3.90;;
21110;SDS011;10713;51.912;4.494;2023-02-28T06:43:46;5.70;;;3.22;;
21110;SDS011;10713;51.912;4.494;2023-02-28T06:46:13;8.68;;;4.32;;
21110;SDS011;10713;51.912;4.494;2023-02-28T06:48:39;13.43;;;4.90;;
21110;SDS011;10713;51.912;4.494;2023-02-28T06:51:07;8.43;;;4.45;;
21110;SDS011;10713;51.912;4.494;2023-02-28T06:53:34;14.60;;;4.55;;
21110;SDS011;10713;51.912;4.494;2023-02-28T06:56:07;5.22;;;3.17;;
21110;SDS011;10713;51.912;4.494;2023-02-28T06:58:34;10.18;;;5.07;;
21110;SDS011;10713;51.912;4.494;2023-02-28T07:01:00;8.48;;;5.20;;
21110;SDS011;10713;51.912;4.494;2023-02-28T07:03:25;13.52;;;5.78;;
21110;SDS011;10713;51.912;4.494;2023-02-28T07:05:50;8.88;;;4.85;;
21110;SDS011;10713;51.912;4.494;2023-02-28T07:08:16;8.13;;;5.15;;
21110;SDS011;10713;51.912;4.494;2023-02-28T07:10:41;12.23;;;5.00;;
21110;SDS011;10713;51.912;4.494;2023-02-28T07:13:07;11.48;;;5.28;;
21110;SDS011;10713;51.912;4.494;2023-02-28T07:15:34;8.43;;;4.13;;
21110;SDS011;10713;51.912;4.494;2023-02-28T07:18:00;9.00;;;4.28;;
21110;SDS011;10713;51.912;4.494;2023-02-28T07:20:26;7.72;;;4.20;;
21110;SDS011;10713;51.912;4.494;2023-02-28T07:22:51;11.93;;;4.85;;
21110;SDS011;10713;51.912;4.494;2023-02-28T07:25:27;8.50;;;4.35;;
21110;SDS011;10713;51.912;4.494;2023-02-28T07:27:54;12.77;;;4.35;;
21110;SDS011;10713;51.912;4.494;2023-02-28T07:30:20;9.70;;;5.13;;
21110;SDS011;10713;51.912;4.494;2023-02-28T07:32:45;10.15;;;5.18;;
21110;SDS011;10713;51.912;4.494;2023-02-28T07:35:12;11.48;;;5.30;;
21110;SDS011;10713;51.912;4.494;2023-02-28T07:37:37;11.35;;;6.20;;
21110;SDS011;10713;51.912;4.494;2023-02-28T07:40:03;14.43;;;6.22;;
21110;SDS011;10713;51.912;4.494;2023-02-28T07:42:33;12.80;;;6.00;;
21110;SDS011;10713;51.912;4.494;2023-02-28T07:45:01;13.50;;;6.25;;
21110;SDS011;10713;51.912;4.494;2023-02-28T07:47:28;11.77;;;6.10;;
21110;SDS011;10713;51.912;4.494;2023-02-28T07:49:55;12.65;;;6.07;;
21110;SDS011;10713;51.912;4.494;2023-02-28T07:52:20;11.60;;;6.55;;
21110;SDS011;10713;51.912;4.494;2023-02-28T07:54:46;17.13;;;6.90;;
21110;SDS011;10713;51.912;4.494;2023-02-28T07:57:11;11.20;;;6.47;;
21110;SDS011;10713;51.912;4.494;2023-02-28T07:59:36;13.65;;;6.88;;
21110;SDS011;10713;51.912;4.494;2023-02-28T08:02:02;14.88;;;7.57;;
21110;SDS011;10713;51.912;4.494;2023-02-28T08:04:27;16.10;;;7.53;;
21110;SDS011;10713;51.912;4.494;2023-02-28T08:06:53;16.83;;;8.00;;
21110;SDS011;10713;51.912;4.494;2023-02-28T08:09:21;18.90;;;8.65;;
21110;SDS011;10713;51.912;4.494;2023-02-28T08:11:46;17.52;;;8.68;;
21110;SDS011;10713;51.912;4.494;2023-02-28T08:14:12;20.80;;;8.77;;
21110;SDS011;10713;51.912;4.494;2023-02-28T08:16:37;17.83;;;7.70;;
21110;SDS011;10713;51.912;4.494;2023-02-28T08:19:03;16.05;;;7.93;;
21110;SDS011;10713;51.912;4.494;2023-02-28T08:21:29;12.93;;;6.35;;
21110;SDS011;10713;51.912;4.494;2023-02-28T08:23:54;13.48;;;6.63;;
21110;SDS011;10713;51.912;4.494;2023-02-28T08:26:21;16.17;;;7.88;;
21110;SDS011;10713;51.912;4.494;2023-02-28T08:28:47;14.43;;;7.47;;
21110;SDS011;10713;51.912;4.494;2023-02-28T08:31:13;11.27;;;5.63;;
21110;SDS011;10713;51.912;4.494;2023-02-28T08:33:40;12.98;;;6.53;;
21110;SDS011;10713;51.912;4.494;2023-02-28T08:36:06;13.52;;;6.18;;
21110;SDS011;10713;51.912;4.494;2023-02-28T08:38:34;15.02;;;6.25;;
21110;SDS011;10713;51.912;4.494;2023-02-28T08:41:02;10.68;;;5.85;;
21110;SDS011;10713;51.912;4.494;2023-02-28T08:43:32;12.50;;;5.93;;
21110;SDS011;10713;51.912;4.494;2023-02-28T08:45:58;10.80;;;6.00;;
21110;SDS011;10713;51.912;4.494;2023-02-28T08:48:24;10.80;;;5.45;;
21110;SDS011;10713;51.912;4.494;2023-02-28T08:50:57;11.55;;;5.70;;
21110;SDS011;10713;51.912;4.494;2023-02-28T08:53:34;10.57;;;5.22;;
21110;SDS011;10713;51.912;4.494;2023-02-28T08:56:01;11.50;;;5.97;;
21110;SDS011;10713;51.912;4.494;2023-02-28T08:58:29;9.63;;;5.95;;
21110;SDS011;10713;51.912;4.494;2023-02-28T09:00:54;13.60;;;5.53;;
21110;SDS011;10713;51.912;4.494;2023-02-28T09:03:20;17.33;;;5.82;;
21110;SDS011;10713;51.912;4.494;2023-02-28T09:05:53;16.95;;;5.93;;
21110;SDS011;10713;51.912;4.494;2023-02-28T09:08:24;10.63;;;4.80;;
21110;SDS011;10713;51.912;4.494;2023-02-28T09:10:50;9.85;;;5.07;;
21110;SDS011;10713;51.912;4.494;2023-02-28T09:13:17;11.07;;;5.78;;
21110;SDS011;10713;51.912;4.494;2023-02-28T09:15:42;10.20;;;5.72;;
21110;SDS011;10713;51.912;4.494;2023-02-28T09:18:08;13.20;;;5.97;;
21110;SDS011;10713;51.912;4.494;2023-02-28T09:20:33;14.05;;;5.97;;
21110;SDS011;10713;51.912;4.494;2023-02-28T09:22:59;10.68;;;6.00;;
21110;SDS011;10713;51.912;4.494;2023-02-28T09:25:24;12.02;;;5.85;;
21110;SDS011;10713;51.912;4.494;2023-02-28T09:27:49;13.73;;;5.97;;
21110;SDS011;10713;51.912;4.494;2023-02-28T09:30:15;12.73;;;6.22;;
21110;SDS011;10713;51.912;4.494;2023-02-28T09:32:41;9.38;;;5.63;;
21110;SDS011;10713;51.912;4.494;2023-02-28T09:35:06;10.07;;;5.68;;
21110;SDS011;10713;51.912;4.494;2023-02-28T09:37:38;16.23;;;8.43;;
21110;SDS011;10713;51.912;4.494;2023-02-28T09:40:03;12.05;;;5.45;;
21110;SDS011;10713;51.912;4.494;2023-02-28T09:42:31;13.48;;;6.22;;
21110;SDS011;10713;51.912;4.494;2023-02-28T09:44:58;13.00;;;5.03;;
21110;SDS011;10713;51.912;4.494;2023-02-28T09:47:31;9.55;;;5.22;;
21110;SDS011;10713;51.912;4.494;2023-02-28T09:50:03;9.80;;;4.75;;
21110;SDS011;10713;51.912;4.494;2023-02-28T09:52:41;9.15;;;4.82;;
21110;SDS011;10713;51.912;4.494;2023-02-28T09:57:47;9.93;;;5.70;;
21110;SDS011;10713;51.912;4.494;2023-02-28T10:00:20;10.77;;;5.30;;
21110;SDS011;10713;51.912;4.494;2023-02-28T10:03:02;15.93;;;6.10;;
21110;SDS011;10713;51.912;4.494;2023-02-28T10:05:38;10.60;;;5.00;;
21110;SDS011;10713;51.912;4.494;2023-02-28T10:08:13;10.73;;;5.38;;
21110;SDS011;10713;51.912;4.494;2023-02-28T10:10:45;9.50;;;4.63;;
21110;SDS011;10713;51.912;4.494;2023-02-28T10:13:21;8.57;;;5.07;;
21110;SDS011;10713;51.912;4.494;2023-02-28T10:16:13;9.93;;;5.55;;
21110;SDS011;10713;51.912;4.494;2023-02-28T10:21:31;7.32;;;4.95;;
21110;SDS011;10713;51.912;4.494;2023-02-28T10:24:02;6.22;;;3.95;;
21110;SDS011;10713;51.912;4.494;2023-02-28T10:26:48;9.55;;;5.10;;
21110;SDS011;10713;51.912;4.494;2023-02-28T10:29:13;9.75;;;5.55;;
21110;SDS011;10713;51.912;4.494;2023-02-28T10:31:40;11.68;;;4.72;;
21110;SDS011;10713;51.912;4.494;2023-02-28T10:34:05;9.10;;;4.90;;
21110;SDS011;10713;51.912;4.494;2023-02-28T10:36:32;6.72;;;4.15;;
21110;SDS011;10713;51.912;4.494;2023-02-28T10:38:57;9.07;;;4.93;;
21110;SDS011;10713;51.912;4.494;2023-02-28T10:41:28;10.68;;;5.47;;
21110;SDS011;10713;51.912;4.494;2023-02-28T10:44:13;6.07;;;4.15;;
21110;SDS011;10713;51.912;4.494;2023-02-28T10:46:42;8.75;;;5.20;;
21110;SDS011;10713;51.912;4.494;2023-02-28T10:49:17;7.85;;;4.45;;
21110;SDS011;10713;51.912;4.494;2023-02-28T10:51:46;8.60;;;3.97;;
21110;SDS011;10713;51.912;4.494;2023-02-28T10:54:24;10.93;;;5.00;;
21110;SDS011;10713;51.912;4.494;2023-02-28T10:59:41;7.55;;;4.47;;
21110;SDS011;10713;51.912;4.494;2023-02-28T11:02:29;6.15;;;4.25;;
21110;SDS011;10713;51.912;4.494;2023-02-28T11:04:59;5.47;;;3.70;;
21110;SDS011;10713;51.912;4.494;2023-02-28T11:07:25;7.32;;;4.38;;
21110;SDS011;10713;51.912;4.494;2023-02-28T11:09:55;5.95;;;3.80;;
21110;SDS011;10713;51.912;4.494;2023-02-28T11:15:04;7.07;;;3.85;;
21110;SDS011;10713;51.912;4.494;2023-02-28T11:17:42;5.30;;;3.40;;
21110;SDS011;10713;51.912;4.494;2023-02-28T11:20:10;4.35;;;3.20;;
21110;SDS011;10713;51.912;4.494;2023-02-28T11:22:46;5.60;;;3.20;;
21110;SDS011;10713;51.912;4.494;2023-02-28T11:25:25;7.72;;;3.58;;
21110;SDS011;10713;51.912;4.494;2023-02-28T11:27:55;4.88;;;3.22;;
21110;SDS011;10713;51.912;4.494;2023-02-28T11:32:48;3.78;;;2.30;;
21110;SDS011;10713;51.912;4.494;2023-02-28T11:35:15;6.75;;;3.03;;
21110;SDS011;10713;51.912;4.494;2023-02-28T11:37:47;4.43;;;3.00;;
21110;SDS011;10713;51.912;4.494;2023-02-28T11:40:17;3.58;;;2.67;;
21110;SDS011;10713;51.912;4.494;2023-02-28T11:57:03;4.45;;;2.55;;
21110;SDS011;10713;51.912;4.494;2023-02-28T12:02:50;3.70;;;3.08;;
21110;SDS011;10713;51.912;4.494;2023-02-28T12:08:26;4.57;;;3.08;;
21110;SDS011;10713;51.912;4.494;2023-02-28T12:11:11;3.97;;;3.22;;
21110;SDS011;10713;51.912;4.494;2023-02-28T12:13:58;6.00;;;2.72;;
21110;SDS011;10713;51.912;4.494;2023-02-28T12:21:48;3.70;;;2.42;;
21110;SDS011;10713;51.912;4.494;2023-02-28T12:27:19;4.50;;;3.10;;
21110;SDS011;10713;51.912;4.494;2023-02-28T12:29:55;4.43;;;2.67;;
21110;SDS011;10713;51.912;4.494;2023-02-28T12:32:27;4.72;;;2.20;;
21110;SDS011;10713;51.912;4.494;2023-02-28T12:35:04;5.80;;;3.10;;
21110;SDS011;10713;51.912;4.494;2023-02-28T12:38:21;4.32;;;3.00;;
21110;SDS011;10713;51.912;4.494;2023-02-28T12:43:19;3.50;;;2.63;;
21110;SDS011;10713;51.912;4.494;2023-02-28T12:45:51;3.95;;;2.75;;
21110;SDS011;10713;51.912;4.494;2023-02-28T12:51:07;3.50;;;2.80;;
21110;SDS011;10713;51.912;4.494;2023-02-28T13:04:29;3.42;;;2.80;;
21110;SDS011;10713;51.912;4.494;2023-02-28T13:09:44;8.20;;;3.08;;
21110;SDS011;10713;51.912;4.494;2023-02-28T13:12:18;6.85;;;2.63;;
21110;SDS011;10713;51.912;4.494;2023-02-28T13:14:45;4.68;;;3.00;;
21110;SDS011;10713;51.912;4.494;2023-02-28T13:17:12;7.82;;;2.72;;
21110;SDS011;10713;51.912;4.494;2023-02-28T13:19:45;2.65;;;1.60;;
21110;SDS011;10713;51.912;4.494;2023-02-28T13:24:50;4.15;;;2.42;;
21110;SDS011;10713;51.912;4.494;2023-02-28T13:27:38;3.65;;;2.58;;
21110;SDS011;10713;51.912;4.494;2023-02-28T13:34:12;9.38;;;3.10;;
21110;SDS011;10713;51.912;4.494;2023-02-28T13:38:43;3.90;;;2.78;;
21110;SDS011;10713;51.912;4.494;2023-02-28T13:55:03;3.28;;;2.78;;
21110;SDS011;10713;51.912;4.494;2023-02-28T14:00:58;3.88;;;3.05;;
21110;SDS011;10713;51.912;4.494;2023-02-28T14:06:31;5.15;;;3.00;;
21110;SDS011;10713;51.912;4.494;2023-02-28T14:13:58;5.85;;;2.92;;
21110;SDS011;10713;51.912;4.494;2023-02-28T14:16:35;3.58;;;2.80;;
21110;SDS011;10713;51.912;4.494;2023-02-28T14:19:15;9.45;;;3.28;;
21110;SDS011;10713;51.912;4.494;2023-02-28T14:30:11;4.72;;;2.55;;
21110;SDS011;10713;51.912;4.494;2023-02-28T14:36:03;5.95;;;3.00;;
21110;SDS011;10713;51.912;4.494;2023-02-28T14:38:43;7.43;;;3.38;;
21110;SDS011;10713;51.912;4.494;2023-02-28T14:41:19;5.32;;;2.95;;
21110;SDS011;10713;51.912;4.494;2023-02-28T14:43:56;5.20;;;3.45;;
21110;SDS011;10713;51.912;4.494;2023-02-28T14:46:23;5.63;;;3.70;;
21110;SDS011;10713;51.912;4.494;2023-02-28T14:48:53;4.70;;;3.13;;
21110;SDS011;10713;51.912;4.494;2023-02-28T14:51:22;4.95;;;3.20;;
21110;SDS011;10713;51.912;4.494;2023-02-28T14:53:50;4.47;;;3.08;;
21110;SDS011;10713;51.912;4.494;2023-02-28T14:56:22;4.10;;;2.88;;
21110;SDS011;10713;51.912;4.494;2023-02-28T14:58:54;3.95;;;2.92;;
21110;SDS011;10713;51.912;4.494;2023-02-28T15:01:21;3.15;;;2.63;;
21110;SDS011;10713;51.912;4.494;2023-02-28T15:03:56;8.77;;;3.97;;
21110;SDS011;10713;51.912;4.494;2023-02-28T15:06:31;4.38;;;2.83;;
21110;SDS011;10713;51.912;4.494;2023-02-28T15:09:07;12.93;;;5.13;;
21110;SDS011;10713;51.912;4.494;2023-02-28T15:11:34;5.32;;;3.05;;
21110;SDS011;10713;51.912;4.494;2023-02-28T15:14:01;6.85;;;3.03;;
21110;SDS011;10713;51.912;4.494;2023-02-28T15:19:04;8.45;;;3.20;;
21110;SDS011;10713;51.912;4.494;2023-02-28T15:21:52;4.35;;;2.90;;
21110;SDS011;10713;51.912;4.494;2023-02-28T15:27:04;6.07;;;2.88;;
21110;SDS011;10713;51.912;4.494;2023-02-28T15:29:34;5.68;;;3.28;;
21110;SDS011;10713;51.912;4.494;2023-02-28T15:32:16;4.13;;;2.78;;
21110;SDS011;10713;51.912;4.494;2023-02-28T15:34:49;4.57;;;3.00;;
21110;SDS011;10713;51.912;4.494;2023-02-28T15:40:04;3.85;;;2.80;;
21110;SDS011;10713;51.912;4.494;2023-02-28T15:42:36;5.05;;;3.30;;
21110;SDS011;10713;51.912;4.494;2023-02-28T15:45:01;4.18;;;3.03;;
21110;SDS011;10713;51.912;4.494;2023-02-28T15:47:27;3.58;;;2.90;;
21110;SDS011;10713;51.912;4.494;2023-02-28T15:50:01;6.10;;;3.25;;
21110;SDS011;10713;51.912;4.494;2023-02-28T15:52:42;4.75;;;3.10;;
21110;SDS011;10713;51.912;4.494;2023-02-28T15:55:10;5.38;;;3.30;;
21110;SDS011;10713;51.912;4.494;2023-02-28T15:57:46;4.60;;;3.00;;
21110;SDS011;10713;51.912;4.494;2023-02-28T16:00:16;4.82;;;2.67;;
21110;SDS011;10713;51.912;4.494;2023-02-28T16:02:45;4.78;;;3.58;;
21110;SDS011;10713;51.912;4.494;2023-02-28T16:07:39;4.43;;;3.20;;
21110;SDS011;10713;51.912;4.494;2023-02-28T16:10:07;6.88;;;2.78;;
21110;SDS011;10713;51.912;4.494;2023-02-28T16:12:35;6.93;;;2.97;;
21110;SDS011;10713;51.912;4.494;2023-02-28T16:15:05;6.68;;;3.92;;
21110;SDS011;10713;51.912;4.494;2023-02-28T16:17:34;4.25;;;2.72;;
21110;SDS011;10713;51.912;4.494;2023-02-28T16:20:05;5.93;;;3.05;;
21110;SDS011;10713;51.912;4.494;2023-02-28T16:22:51;5.35;;;3.00;;
21110;SDS011;10713;51.912;4.494;2023-02-28T16:25:19;7.85;;;3.60;;
21110;SDS011;10713;51.912;4.494;2023-02-28T16:27:48;4.10;;;2.80;;
21110;SDS011;10713;51.912;4.494;2023-02-28T16:30:19;5.93;;;3.00;;
21110;SDS011;10713;51.912;4.494;2023-02-28T16:32:46;5.03;;;3.00;;
21110;SDS011;10713;51.912;4.494;2023-02-28T16:35:13;4.75;;;2.95;;
21110;SDS011;10713;51.912;4.494;2023-02-28T16:37:39;5.97;;;3.25;;
21110;SDS011;10713;51.912;4.494;2023-02-28T16:40:06;8.75;;;3.35;;
21110;SDS011;10713;51.912;4.494;2023-02-28T16:42:34;5.15;;;3.63;;
21110;SDS011;10713;51.912;4.494;2023-02-28T16:45:00;6.90;;;3.55;;
21110;SDS011;10713;51.912;4.494;2023-02-28T16:47:25;6.38;;;3.85;;
21110;SDS011;10713;51.912;4.494;2023-02-28T16:49:51;6.70;;;3.70;;
21110;SDS011;10713;51.912;4.494;2023-02-28T16:52:17;10.73;;;3.85;;
21110;SDS011;10713;51.912;4.494;2023-02-28T16:54:42;7.88;;;3.85;;
21110;SDS011;10713;51.912;4.494;2023-02-28T16:57:19;9.10;;;4.25;;
21110;SDS011;10713;51.912;4.494;2023-02-28T16:59:46;6.85;;;4.05;;
21110;SDS011;10713;51.912;4.494;2023-02-28T17:02:16;7.40;;;4.28;;
21110;SDS011;10713;51.912;4.494;2023-02-28T17:04:44;8.45;;;4.32;;
21110;SDS011;10713;51.912;4.494;2023-02-28T17:07:14;8.15;;;3.83;;
21110;SDS011;10713;51.912;4.494;2023-02-28T17:09:41;7.50;;;4.15;;
21110;SDS011;10713;51.912;4.494;2023-02-28T17:12:07;9.18;;;3.97;;
21110;SDS011;10713;51.912;4.494;2023-02-28T17:14:34;6.13;;;4.13;;
21110;SDS011;10713;51.912;4.494;2023-02-28T17:16:59;7.50;;;4.10;;
21110;SDS011;10713;51.912;4.494;2023-02-28T17:19:25;6.18;;;4.22;;
21110;SDS011;10713;51.912;4.494;2023-02-28T17:21:50;9.02;;;4.13;;
21110;SDS011;10713;51.912;4.494;2023-02-28T17:24:15;6.10;;;3.88;;
21110;SDS011;10713;51.912;4.494;2023-02-28T17:26:41;6.97;;;4.22;;
21110;SDS011;10713;51.912;4.494;2023-02-28T17:29:17;8.05;;;4.28;;